Time;durP1;ratioP1;P1;durP2;ratioP2;P2;SDS_P1;SDS_P2;PMS_P1;PMS_P2;Temp;Humidity;BMP_temperature;BMP_pressure;BME280_temperature;BME280_humidity;BME280_pressure;Samples;Min_cycle;Max_cycle;Signal;HPM_P1;HPM_P2
2022/07/23 00:02:16;;;;;;;;;;;25.70;99.40;;;;;;5052692;28;20073;-61
2022/07/23 00:04:41;;;;;;;9.50;6.95;;;25.70;99.30;;;;;;5052990;28;19909;-61
2022/07/23 00:07:07;;;;;;;;;;;25.60;99.50;;;;;;5053177;28;20444;-60
2022/07/23 00:09:33;;;;;;;11.55;6.68;;;25.60;99.80;;;;;;5052344;28;19905;-58
2022/07/23 00:11:59;;;;;;;7.82;7.00;;;25.50;99.80;;;;;;5054681;28;20421;-61
2022/07/23 00:14:24;;;;;;;;;;;25.40;99.80;;;;;;5056893;28;20024;-61
2022/07/23 00:16:50;;;;;;;8.30;6.72;;;25.40;99.90;;;;;;5059334;28;19931;-61
2022/07/23 00:19:15;;;;;;;;;;;25.40;99.90;;;;;;5060866;28;20024;-61
2022/07/23 00:21:41;;;;;;;7.20;6.43;;;25.30;99.90;;;;;;5059988;28;19964;-61
2022/07/23 00:24:06;;;;;;;;;;;25.30;99.90;;;;;;5056865;28;20025;-61
2022/07/23 00:26:32;;;;;;;11.57;6.80;;;25.30;99.90;;;;;;5055755;28;19909;-62
2022/07/23 00:28:57;;;;;;;9.35;6.60;;;25.30;99.80;;;;;;5056063;28;20036;-62
2022/07/23 00:31:23;;;;;;;;;;;25.20;99.80;;;;;;5054753;28;20048;-61
2022/07/23 00:33:48;;;;;;;8.40;6.28;;;25.20;99.90;;;;;;5055633;28;20281;-61
2022/07/23 00:36:14;;;;;;;;;;;25.20;99.90;;;;;;5056124;28;20037;-61
2022/07/23 00:38:40;;;;;;;8.70;6.43;;;25.20;99.80;;;;;;5055718;28;19972;-61
2022/07/23 00:41:05;;;;;;;;;;;25.20;99.90;;;;;;5055802;28;20075;-60
2022/07/23 00:43:31;;;;;;;11.30;6.38;;;25.10;99.90;;;;;;5054686;28;20099;-60
2022/07/23 00:45:56;;;;;;;;;;;25.10;99.90;;;;;;5056266;28;20108;-60
2022/07/23 00:48:22;;;;;;;8.00;6.43;;;25.10;99.90;;;;;;5055473;28;19905;-62
2022/07/23 00:50:47;;;;;;;;;;;25.10;99.80;;;;;;5055903;28;20166;-61
2022/07/23 00:53:13;;;;;;;7.85;5.82;;;25.10;99.70;;;;;;5055367;28;20288;-60
2022/07/23 00:55:39;;;;;;;;;;;25.00;99.50;;;;;;5055665;28;20033;-60
2022/07/23 00:58:04;;;;;;;10.82;5.65;;;25.00;99.30;;;;;;5055278;28;19909;-60
2022/07/23 01:00:30;;;;;;;8.25;5.97;;;25.00;99.30;;;;;;5055251;28;20382;-60
2022/07/23 01:02:56;;;;;;;;;;;24.90;99.10;;;;;;5056606;28;20103;-61
2022/07/23 01:05:22;;;;;;;6.63;5.53;;;24.90;99.10;;;;;;5055257;28;19916;-60
2022/07/23 01:07:51;;;;;;;;;;;24.90;99.00;;;;;;5055572;28;20021;-60
2022/07/23 01:10:32;;;;;;;9.50;5.10;;;24.90;98.90;;;;;;5054975;28;20270;-61
2022/07/23 01:13:06;;;;;;;7.63;5.57;;;24.80;98.90;;;;;;5055266;28;20024;-61
2022/07/23 01:15:33;;;;;;;8.98;6.30;;;24.80;98.90;;;;;;5055004;28;20025;-61
2022/07/23 01:17:59;;;;;;;7.75;5.70;;;24.70;98.80;;;;;;5054805;28;20025;-61
2022/07/23 01:20:25;;;;;;;5.75;5.25;;;24.70;98.70;;;;;;5054781;28;20482;-60
2022/07/23 01:22:51;;;;;;;;;;;24.70;98.70;;;;;;5054830;28;20032;-60
2022/07/23 01:25:17;;;;;;;7.70;5.75;;;24.70;98.80;;;;;;5054656;28;19908;-61
2022/07/23 01:27:43;;;;;;;;;;;24.70;99.00;;;;;;5055186;28;20100;-60
2022/07/23 01:30:09;;;;;;;7.95;5.68;;;24.70;99.00;;;;;;5054568;28;20361;-60
2022/07/23 01:32:34;;;;;;;6.82;5.63;;;24.70;99.20;;;;;;5054519;28;20025;-61
2022/07/23 01:35:00;;;;;;;;;;;24.60;99.30;;;;;;5055071;28;20440;-59
2022/07/23 01:37:25;;;;;;;8.13;5.82;;;24.50;99.50;;;;;;5054685;28;20328;-61
2022/07/23 01:39:51;;;;;;;;;;;24.50;99.60;;;;;;5054898;28;20047;-61
2022/07/23 01:42:17;;;;;;;8.00;5.53;;;24.40;99.90;;;;;;5054564;28;19909;-61
2022/07/23 01:44:42;;;;;;;;;;;24.20;99.90;;;;;;5053549;28;20029;-60
2022/07/23 01:47:08;;;;;;;7.95;5.85;;;24.20;99.90;;;;;;5054397;28;19927;-59
2022/07/23 01:49:33;;;;;;;;;;;24.20;99.90;;;;;;5078613;22;20037;-64
2022/07/23 01:52:01;;;;;;;8.10;5.70;;;24.10;99.90;;;;;;5054046;28;19963;-64
2022/07/23 01:54:29;;;;;;;8.27;5.10;;;24.10;99.90;;;;;;5055837;28;20389;-64
2022/07/23 01:56:55;;;;;;;8.48;5.65;;;24.10;99.90;;;;;;5055276;28;20024;-64
2022/07/23 01:59:21;;;;;;;;;;;24.00;99.90;;;;;;5055755;28;20366;-63
2022/07/23 02:01:47;;;;;;;7.28;4.95;;;24.00;99.60;;;;;;5054533;28;19951;-65
2022/07/23 02:04:12;;;;;;;;;;;24.00;99.50;;;;;;5055515;28;20056;-64
2022/07/23 02:06:38;;;;;;;7.82;5.18;;;24.00;99.50;;;;;;5053474;28;19912;-64
2022/07/23 02:09:03;;;;;;;;;;;23.90;99.50;;;;;;5053934;28;20032;-64
2022/07/23 02:11:29;;;;;;;5.85;4.97;;;23.90;99.40;;;;;;5053507;28;19909;-64
2022/07/23 02:13:54;;;;;;;;;;;23.90;99.40;;;;;;5055759;28;20431;-64
2022/07/23 02:16:20;;;;;;;8.77;5.25;;;23.90;99.20;;;;;;5055381;28;19905;-64
2022/07/23 02:18:46;;;;;;;;;;;23.80;99.10;;;;;;5055601;28;20075;-64
2022/07/23 02:21:12;;;;;;;5.45;4.78;;;23.90;98.80;;;;;;5054889;28;20365;-63
2022/07/23 02:23:38;;;;;;;7.10;4.75;;;23.90;98.80;;;;;;5055469;28;20029;-64
2022/07/23 02:26:03;;;;;;;;;;;23.90;98.80;;;;;;5055243;28;20535;-65
2022/07/23 02:28:29;;;;;;;6.30;4.95;;;23.80;98.80;;;;;;5054536;28;19909;-65
2022/07/23 02:30:54;;;;;;;;;;;23.90;98.40;;;;;;5055135;28;20429;-65
2022/07/23 02:33:20;;;;;;;5.10;4.55;;;23.80;98.40;;;;;;5052954;28;19905;-65
2022/07/23 02:35:45;;;;;;;;;;;23.70;98.50;;;;;;5051996;28;20031;-65
2022/07/23 02:38:11;;;;;;;6.45;4.75;;;23.70;98.50;;;;;;5054010;28;19955;-65
2022/07/23 02:40:36;;;;;;;;;;;23.60;98.50;;;;;;5054040;28;20037;-65
2022/07/23 02:43:02;;;;;;;7.25;4.57;;;23.50;98.50;;;;;;5053784;28;19970;-65
2022/07/23 02:45:27;;;;;;;5.07;4.55;;;23.50;98.60;;;;;;5054263;28;20047;-65
2022/07/23 02:47:53;;;;;;;;;;;23.50;98.60;;;;;;5054461;28;20100;-65
2022/07/23 02:50:19;;;;;;;6.20;4.05;;;23.50;98.60;;;;;;5054008;28;19959;-65
2022/07/23 02:52:44;;;;;;;;;;;23.40;98.60;;;;;;5052623;28;20025;-65
2022/07/23 02:55:10;;;;;;;7.07;4.50;;;23.40;98.60;;;;;;5052190;28;19905;-65
2022/07/23 02:57:36;;;;;;;6.32;4.45;;;23.50;98.50;;;;;;5053907;28;20032;-65
2022/07/23 03:00:03;;;;;;;6.80;4.55;;;23.40;98.30;;;;;;5053441;28;20115;-65
2022/07/23 03:02:29;;;;;;;7.00;4.50;;;23.40;98.30;;;;;;5053717;28;20040;-65
2022/07/23 03:04:55;;;;;;;5.85;4.13;;;23.40;98.40;;;;;;5053642;28;20048;-65
2022/07/23 03:07:20;;;;;;;;;;;23.30;98.50;;;;;;5054200;28;20334;-65
2022/07/23 03:09:46;;;;;;;4.65;4.25;;;23.30;98.60;;;;;;5053608;28;20392;-65
2022/07/23 03:12:11;;;;;;;;;;;23.30;99.10;;;;;;5053580;28;20028;-65
2022/07/23 03:14:37;;;;;;;6.25;4.25;;;23.30;98.80;;;;;;5053046;28;19912;-65
2022/07/23 03:17:02;;;;;;;6.65;4.30;;;23.30;98.70;;;;;;5053364;28;20041;-65
2022/07/23 03:19:28;;;;;;;;;;;23.30;98.70;;;;;;5053482;28;20048;-65
2022/07/23 03:21:53;;;;;;;4.50;3.63;;;23.30;98.70;;;;;;5053093;28;19905;-65
2022/07/23 03:24:19;;;;;;;;;;;23.30;98.50;;;;;;5053736;28;20045;-65
2022/07/23 03:26:44;;;;;;;6.18;3.85;;;23.30;98.60;;;;;;5053431;28;19932;-65
2022/07/23 03:29:10;;;;;;;;;;;23.30;98.70;;;;;;5053713;28;20116;-63
2022/07/23 03:31:36;;;;;;;5.63;4.38;;;23.20;98.70;;;;;;5053348;28;20320;-65
2022/07/23 03:34:01;;;;;;;;;;;23.20;98.80;;;;;;5052111;28;20021;-65
2022/07/23 03:36:27;;;;;;;5.72;4.57;;;23.30;98.70;;;;;;5051953;28;20416;-65
2022/07/23 03:38:53;;;;;;;5.55;3.83;;;23.20;98.60;;;;;;5053322;28;20024;-65
2022/07/23 03:41:19;;;;;;;;;;;23.20;98.70;;;;;;5053510;28;20056;-64
2022/07/23 03:43:44;;;;;;;7.15;4.63;;;23.20;98.80;;;;;;5053428;28;19905;-65
2022/07/23 03:46:10;;;;;;;;;;;23.20;98.80;;;;;;5053176;28;20040;-64
2022/07/23 03:48:35;;;;;;;5.88;3.97;;;23.20;98.70;;;;;;5057004;28;19904;-64
2022/07/23 03:51:01;;;;;;;8.95;4.15;;;23.20;98.70;;;;;;5056849;28;20574;-64
2022/07/23 03:53:27;;;;;;;;;;;23.10;98.60;;;;;;5057186;28;20493;-64
2022/07/23 03:55:52;;;;;;;6.05;3.80;;;23.10;98.80;;;;;;5054532;28;20373;-65
2022/07/23 03:58:18;;;;;;;5.22;4.05;;;23.10;98.80;;;;;;5054946;28;20481;-64
2022/07/23 04:00:43;;;;;;;8.30;4.80;;;23.00;99.00;;;;;;5057009;28;20025;-65
2022/07/23 04:03:09;;;;;;;5.93;4.00;;;23.00;99.10;;;;;;5058810;28;20036;-64
2022/07/23 04:05:34;;;;;;;;;;;22.90;99.30;;;;;;5059426;28;20032;-65
2022/07/23 04:08:00;;;;;;;6.55;4.15;;;22.90;99.30;;;;;;5058999;28;19970;-64
2022/07/23 04:10:26;;;;;;;6.07;4.22;;;23.00;99.20;;;;;;5061727;28;20096;-64
2022/07/23 04:12:51;;;;;;;6.15;4.05;;;23.00;99.20;;;;;;5058178;28;20106;-64
2022/07/23 04:15:16;;;;;;;;;;;23.00;99.10;;;;;;5059135;28;20064;-65
2022/07/23 04:17:43;;;;;;;7.15;4.03;;;23.00;99.10;;;;;;5058827;28;19996;-64
2022/07/23 04:20:10;;;;;;;6.05;4.07;;;23.00;99.00;;;;;;5056432;28;20025;-65
2022/07/23 04:22:36;;;;;;;5.10;4.18;;;23.00;99.10;;;;;;5058481;28;20029;-65
2022/07/23 04:25:01;;;;;;;6.65;4.03;;;23.00;98.90;;;;;;5056435;28;20481;-65
2022/07/23 04:27:27;;;;;;;;;;;23.10;99.00;;;;;;5056794;28;20031;-65
2022/07/23 04:29:52;;;;;;;7.63;4.82;;;23.10;99.40;;;;;;5056482;28;19912;-66
2022/07/23 04:32:18;;;;;;;7.22;4.47;;;23.00;99.90;;;;;;5057101;28;20021;-65
2022/07/23 04:34:43;;;;;;;4.93;3.65;;;23.00;99.90;;;;;;5057419;28;20500;-65
2022/07/23 04:37:09;;;;;;;;;;;23.00;99.90;;;;;;5057139;28;20493;-64
2022/07/23 04:39:34;;;;;;;6.45;4.35;;;22.90;99.90;;;;;;5056632;28;20361;-64
2022/07/23 04:42:00;;;;;;;4.88;4.32;;;22.90;99.90;;;;;;5055707;28;20079;-64
2022/07/23 04:44:26;;;;;;;6.13;4.07;;;22.80;99.90;;;;;;5058165;28;20025;-64
2022/07/23 04:46:51;;;;;;;;;;;22.80;99.90;;;;;;5058511;28;20025;-65
2022/07/23 04:49:17;;;;;;;5.28;4.53;;;22.70;99.90;;;;;;5057476;28;19923;-63
2022/07/23 04:51:42;;;;;;;6.70;4.50;;;22.90;99.90;;;;;;5056053;28;20354;-64
2022/07/23 04:54:08;;;;;;;7.45;4.45;;;23.10;99.90;;;;;;5056806;28;20553;-64
2022/07/23 04:56:34;;;;;;;;;;;23.10;99.90;;;;;;5057432;28;20024;-63
2022/07/23 04:59:00;;;;;;;7.78;4.30;;;23.10;99.90;;;;;;5055174;28;20316;-63
2022/07/23 05:01:26;;;;;;;6.30;3.88;;;23.20;99.90;;;;;;5056762;28;20033;-64
2022/07/23 05:03:51;;;;;;;5.38;4.13;;;23.30;99.90;;;;;;5056120;28;20523;-63
2022/07/23 05:06:17;;;;;;;;;;;23.30;99.90;;;;;;5055976;28;20029;-63
2022/07/23 05:08:42;;;;;;;8.90;4.25;;;23.30;99.90;;;;;;5055390;28;19999;-63
2022/07/23 05:11:08;;;;;;;;;;;23.40;99.90;;;;;;5056013;28;20351;-63
2022/07/23 05:13:33;;;;;;;6.03;4.47;;;23.40;99.90;;;;;;5054046;28;19905;-63
2022/07/23 05:15:59;;;;;;;;;;;23.40;99.90;;;;;;5056045;28;20439;-63
2022/07/23 05:18:24;;;;;;;6.35;4.53;;;23.40;99.90;;;;;;5055194;28;19912;-63
2022/07/23 05:20:50;;;;;;;;;;;23.40;99.90;;;;;;5056271;28;20343;-61
2022/07/23 05:23:16;;;;;;;5.13;4.05;;;23.30;99.90;;;;;;5053857;28;19998;-63
2022/07/23 05:25:41;;;;;;;;;;;23.40;99.90;;;;;;5055584;28;20025;-62
2022/07/23 05:28:07;;;;;;;6.35;4.70;;;23.40;99.90;;;;;;5057331;28;20272;-63
2022/07/23 05:30:32;;;;;;;;;;;23.60;99.90;;;;;;5055587;28;20024;-62
2022/07/23 05:32:58;;;;;;;5.20;4.22;;;23.70;99.90;;;;;;5055077;28;19909;-62
2022/07/23 05:35:24;;;;;;;;;;;23.50;99.90;;;;;;5055985;28;20108;-62
2022/07/23 05:37:49;;;;;;;6.05;4.20;;;23.50;99.90;;;;;;5057165;28;19912;-64
2022/07/23 05:40:16;;;;;;;6.68;4.70;;;23.50;99.90;;;;;;5055350;28;20037;-63
2022/07/23 05:42:42;;;;;;;6.78;4.57;;;23.50;99.90;;;;;;5055578;28;20501;-63
2022/07/23 05:45:08;;;;;;;6.55;4.75;;;23.40;99.90;;;;;;5055298;28;20124;-62
2022/07/23 05:47:47;;;;;;;6.38;4.60;;;23.60;99.90;;;;;;5056446;28;20049;-62
2022/07/23 05:50:14;;;;;;;8.48;4.75;;;23.70;99.90;;;;;;5055647;28;20494;-63
2022/07/23 05:52:40;;;;;;;10.55;5.28;;;23.80;99.90;;;;;;5055399;28;20105;-63
2022/07/23 05:55:06;;;;;;;;;;;23.90;99.90;;;;;;5055131;28;20049;-62
2022/07/23 05:57:32;;;;;;;9.87;5.23;;;23.80;99.90;;;;;;5054520;28;19955;-62
2022/07/23 05:59:58;;;;;;;;;;;23.80;99.90;;;;;;5054349;28;20021;-62
2022/07/23 06:02:23;;;;;;;8.43;4.57;;;23.70;99.90;;;;;;5055166;28;19939;-61
2022/07/23 06:04:49;;;;;;;;;;;23.60;99.90;;;;;;5056511;28;20299;-62
2022/07/23 06:07:14;;;;;;;5.55;4.97;;;23.40;99.90;;;;;;5054550;28;19904;-63
2022/07/23 06:09:40;;;;;;;7.00;4.90;;;23.20;99.90;;;;;;5054608;28;20119;-63
2022/07/23 06:12:06;;;;;;;;;;;23.20;99.90;;;;;;5053798;28;20028;-63
2022/07/23 06:14:31;;;;;;;8.57;5.88;;;23.30;99.90;;;;;;5054349;28;20019;-62
2022/07/23 06:16:57;;;;;;;;;;;23.40;99.90;;;;;;5054506;28;20024;-62
2022/07/23 06:19:22;;;;;;;6.40;4.93;;;23.50;99.90;;;;;;5054203;28;19905;-62
2022/07/23 06:21:48;;;;;;;;;;;23.40;99.90;;;;;;5054609;28;20381;-62
2022/07/23 06:24:13;;;;;;;10.52;5.05;;;23.50;99.90;;;;;;5054283;28;19951;-62
2022/07/23 06:26:39;;;;;;;;;;;23.40;99.90;;;;;;5054834;28;20473;-63
2022/07/23 06:29:05;;;;;;;6.50;4.25;;;23.40;99.90;;;;;;5054503;28;19912;-63
2022/07/23 06:31:30;;;;;;;8.80;5.53;;;23.40;99.90;;;;;;5053777;28;20017;-63
2022/07/23 06:33:56;;;;;;;;;;;23.50;99.90;;;;;;5054073;28;20029;-62
2022/07/23 06:36:21;;;;;;;6.97;4.70;;;23.60;99.90;;;;;;5052543;28;19963;-63
2022/07/23 06:38:47;;;;;;;5.68;4.25;;;23.30;99.90;;;;;;5053788;28;20037;-63
2022/07/23 06:41:12;;;;;;;5.93;4.60;;;23.30;99.90;;;;;;5052342;28;20082;-62
2022/07/23 06:43:38;;;;;;;;;;;23.30;99.90;;;;;;5054339;28;20040;-62
2022/07/23 06:46:04;;;;;;;7.00;4.97;;;23.30;99.90;;;;;;5053703;28;19912;-62
2022/07/23 06:48:29;;;;;;;;;;;23.40;99.90;;;;;;5053977;28;20432;-62
2022/07/23 06:50:55;;;;;;;10.77;4.75;;;23.60;99.90;;;;;;5053428;28;19943;-63
2022/07/23 06:53:20;;;;;;;;;;;23.70;99.90;;;;;;5053962;28;20017;-63
2022/07/23 06:55:46;;;;;;;7.93;4.93;;;23.90;99.90;;;;;;5055240;28;19972;-62
2022/07/23 06:58:13;;;;;;;;;;;24.10;99.90;;;;;;5054518;28;20441;-63
2022/07/23 07:00:39;;;;;;;5.35;4.63;;;24.30;99.90;;;;;;5053934;28;20427;-63
2022/07/23 07:03:05;;;;;;;;;;;24.30;99.90;;;;;;5056299;28;20071;-62
2022/07/23 07:05:30;;;;;;;6.47;4.63;;;24.20;99.90;;;;;;5054070;28;20385;-61
2022/07/23 07:07:57;;;;;;;;;;;24.10;99.90;;;;;;5054260;28;20029;-61
2022/07/23 07:10:23;;;;;;;6.10;4.60;;;23.90;99.90;;;;;;5054680;28;19909;-62
2022/07/23 07:12:48;;;;;;;;;;;23.80;99.90;;;;;;5055666;28;20020;-61
2022/07/23 07:15:14;;;;;;;5.53;4.63;;;23.80;99.90;;;;;;5057090;28;19947;-62
2022/07/23 07:17:42;;;;;;;;;;;23.80;99.90;;;;;;5056259;28;20039;-62
2022/07/23 07:20:08;;;;;;;6.32;5.32;;;23.80;99.90;;;;;;5054973;28;20341;-62
2022/07/23 07:22:34;;;;;;;7.47;5.13;;;23.80;99.90;;;;;;5052179;28;20033;-62
2022/07/23 07:24:59;;;;;;;;;;;23.90;99.90;;;;;;5053910;28;20412;-61
2022/07/23 07:27:25;;;;;;;8.30;5.13;;;23.80;99.90;;;;;;5053861;28;20371;-63
2022/07/23 07:29:50;;;;;;;;;;;23.80;99.90;;;;;;5052436;28;20079;-62
2022/07/23 07:32:16;;;;;;;7.13;5.35;;;23.90;99.90;;;;;;5053008;28;19944;-61
2022/07/23 07:34:41;;;;;;;;;;;23.90;99.90;;;;;;5053476;28;20028;-62
2022/07/23 07:37:07;;;;;;;8.15;6.38;;;24.00;99.90;;;;;;5053648;28;20250;-61
2022/07/23 07:39:32;;;;;;;;;;;24.10;99.90;;;;;;5052322;28;20078;-62
2022/07/23 07:41:58;;;;;;;6.90;5.63;;;24.20;99.90;;;;;;5051558;28;19912;-62
2022/07/23 07:44:23;;;;;;;;;;;24.20;99.90;;;;;;5052043;28;20028;-61
2022/07/23 07:46:49;;;;;;;7.38;5.10;;;24.20;99.90;;;;;;5053283;28;20292;-61
2022/07/23 07:51:53;;;;;;;6.10;5.43;;;24.40;99.90;;;;;;5051719;28;19921;-61
2022/07/23 07:54:18;;;;;;;;;;;24.60;99.90;;;;;;5053379;28;20032;-61
2022/07/23 07:56:44;;;;;;;10.35;5.32;;;24.80;99.90;;;;;;5052625;28;19999;-61
2022/07/23 07:59:11;;;;;;;;;;;25.00;99.90;;;;;;5052747;28;20025;-59
2022/07/23 08:01:36;;;;;;;5.97;5.20;;;25.20;99.90;;;;;;5052351;28;19940;-61
2022/07/23 08:04:02;;;;;;;13.00;5.93;;;25.50;99.90;;;;;;5051082;28;20033;-60
2022/07/23 08:06:28;;;;;;;6.13;5.25;;;25.70;99.90;;;;;;5052360;28;20477;-60
2022/07/23 08:08:53;;;;;;;6.00;5.15;;;25.90;99.50;;;;;;5052444;28;20021;-59
2022/07/23 08:11:19;;;;;;;8.18;5.82;;;25.90;99.10;;;;;;5052251;28;20025;-59
2022/07/23 08:13:44;;;;;;;8.00;5.45;;;25.90;99.30;;;;;;5052831;28;20100;-61
2022/07/23 08:16:11;;;;;;;6.15;5.55;;;26.20;98.80;;;;;;5052343;28;20025;-60
2022/07/23 08:18:36;;;;;;;7.32;5.32;;;26.70;98.40;;;;;;5052719;28;20033;-61
2022/07/23 08:21:04;;;;;;;6.82;5.07;;;28.10;96.50;;;;;;5052563;28;20035;-62
2022/07/23 08:23:29;;;;;;;5.45;4.95;;;29.80;94.10;;;;;;5052556;28;20029;-59
2022/07/23 08:25:56;;;;;;;6.90;5.13;;;31.60;91.90;;;;;;5052513;28;20025;-62
2022/07/23 08:28:22;;;;;;;7.75;5.38;;;32.50;90.30;;;;;;5056353;28;20081;-64
2022/07/23 08:30:48;;;;;;;5.43;4.72;;;33.40;86.30;;;;;;5055975;28;20060;-62
2022/07/23 08:33:15;;;;;;;5.80;4.78;;;34.00;83.90;;;;;;5053140;28;20408;-61
2022/07/23 08:35:45;;;;;;;7.65;5.05;;;34.80;82.10;;;;;;5055720;28;20025;-61
2022/07/23 08:38:11;;;;;;;5.40;4.80;;;34.60;81.90;;;;;;5055893;28;20039;-62
2022/07/23 08:40:42;;;;;;;6.60;4.47;;;35.50;79.40;;;;;;5055465;28;20469;-62
2022/07/23 08:43:10;;;;;;;5.53;4.75;;;36.20;78.30;;;;;;5055822;28;20485;-61
2022/07/23 08:45:41;;;;;;;6.45;4.82;;;37.10;75.10;;;;;;5055795;28;20021;-61
2022/07/23 08:48:36;;;;;;;5.90;5.30;;;36.40;74.50;;;;;;5056174;28;20021;-62
2022/07/23 08:51:04;;;;;;;6.00;5.40;;;36.00;74.80;;;;;;5054272;28;20132;-62
2022/07/23 08:53:32;;;;;;;7.68;5.30;;;36.40;74.20;;;;;;5054209;28;20362;-62
2022/07/23 08:56:03;;;;;;;4.80;4.40;;;36.60;73.00;;;;;;5055236;28;20024;-62
2022/07/23 08:58:30;;;;;;;6.03;5.18;;;37.40;71.80;;;;;;5055484;28;20120;-62
2022/07/23 09:00:56;;;;;;;7.05;5.47;;;36.90;71.30;;;;;;5052914;28;20131;-63
2022/07/23 09:03:28;;;;;;;5.15;4.65;;;37.10;71.10;;;;;;5053210;28;20024;-61
2022/07/23 09:05:56;;;;;;;5.93;5.30;;;37.80;69.60;;;;;;5055010;28;20071;-61
2022/07/23 09:08:38;;;;;;;5.45;4.95;;;38.30;68.90;;;;;;5055252;28;20025;-62
2022/07/23 09:11:08;;;;;;;5.57;5.00;;;37.30;68.90;;;;;;5055132;28;20025;-63
2022/07/23 09:13:47;;;;;;;5.63;5.13;;;35.90;70.30;;;;;;5055186;28;20477;-63
2022/07/23 09:16:15;;;;;;;6.05;5.40;;;34.60;72.80;;;;;;5053814;28;20029;-63
2022/07/23 09:18:43;;;;;;;7.78;5.75;;;34.20;74.50;;;;;;5055210;28;20452;-63
2022/07/23 09:21:12;;;;;;;5.90;5.07;;;34.60;73.00;;;;;;5055788;28;20020;-63
2022/07/23 09:23:43;;;;;;;7.63;4.57;;;35.80;71.60;;;;;;5055109;28;20036;-64
2022/07/23 09:26:25;;;;;;;5.68;4.82;;;36.50;70.20;;;;;;5053729;28;20035;-65
2022/07/23 09:28:54;;;;;;;6.38;4.85;;;37.30;68.40;;;;;;5056249;28;20116;-66
2022/07/23 09:31:20;;;;;;;6.40;4.80;;;37.80;67.50;;;;;;5057406;28;20141;-63
2022/07/23 09:33:46;;;;;;;7.32;5.00;;;37.40;68.20;;;;;;5055310;28;20029;-63
2022/07/23 09:36:11;;;;;;;6.40;4.93;;;37.80;67.50;;;;;;5054760;28;20079;-63
2022/07/23 09:38:51;;;;;;;6.78;5.05;;;37.10;67.90;;;;;;5057261;28;20052;-63
2022/07/23 09:41:17;;;;;;;6.32;5.05;;;36.90;67.80;;;;;;5057394;28;20029;-63
2022/07/23 09:43:43;;;;;;;6.25;5.05;;;37.50;67.40;;;;;;5054734;28;20032;-64
2022/07/23 09:46:21;;;;;;;5.57;5.00;;;37.50;66.20;;;;;;5055217;28;20477;-62
2022/07/23 09:48:47;;;;;;;5.10;4.60;;;37.70;66.40;;;;;;5054836;28;20043;-62
2022/07/23 09:51:17;;;;;;;7.07;4.70;;;37.90;64.70;;;;;;5054804;28;20560;-63
2022/07/23 09:53:42;;;;;;;5.00;4.50;;;37.50;64.80;;;;;;5054102;28;20020;-64
2022/07/23 09:56:08;;;;;;;5.82;4.68;;;38.10;64.40;;;;;;5054347;28;20036;-62
2022/07/23 09:58:43;;;;;;;5.13;4.63;;;38.30;64.00;;;;;;5053121;28;20370;-64
2022/07/23 10:01:10;;;;;;;5.83;4.63;;;38.10;64.50;;;;;;5054317;28;20029;-62
2022/07/23 10:03:36;;;;;;;4.63;4.03;;;38.40;63.80;;;;;;5054349;28;20021;-63
2022/07/23 10:06:01;;;;;;;6.00;4.80;;;38.20;63.60;;;;;;5054748;28;20104;-64
2022/07/23 10:08:27;;;;;;;5.57;5.07;;;38.40;63.10;;;;;;5054788;28;20534;-66
2022/07/23 10:10:54;;;;;;;5.15;4.65;;;37.90;63.00;;;;;;5054213;28;20496;-67
2022/07/23 10:16:04;;;;;;;5.35;4.85;;;37.80;63.50;;;;;;5054153;28;20055;-62
2022/07/23 10:18:30;;;;;;;6.53;4.78;;;38.80;62.90;;;;;;5053638;28;20477;-64
2022/07/23 10:20:56;;;;;;;5.78;4.63;;;39.00;61.80;;;;;;5053575;28;20036;-63
2022/07/23 10:23:33;;;;;;;5.25;4.70;;;38.10;62.30;;;;;;5052687;28;20036;-63
2022/07/23 10:26:24;;;;;;;7.30;4.65;;;38.00;62.80;;;;;;5054308;28;20061;-65
2022/07/23 10:29:05;;;;;;;5.82;4.68;;;38.10;63.40;;;;;;5053933;28;20032;-60
2022/07/23 10:31:49;;;;;;;7.05;4.93;;;38.70;62.10;;;;;;5053968;28;20049;-64
2022/07/23 10:34:21;;;;;;;6.97;6.28;;;39.00;61.80;;;;;;5053991;28;20029;-64
2022/07/23 10:36:55;;;;;;;11.65;5.65;;;39.30;61.70;;;;;;5054325;28;20028;-64
2022/07/23 10:39:28;;;;;;;6.13;5.32;;;39.70;60.70;;;;;;5053784;28;20036;-65
2022/07/23 10:42:12;;;;;;;5.35;4.85;;;39.30;61.40;;;;;;5053803;28;20063;-64
2022/07/23 10:44:48;;;;;;;5.45;4.93;;;36.80;63.30;;;;;;5058882;28;20485;-65
2022/07/23 10:47:43;;;;;;;7.43;4.55;;;36.00;65.50;;;;;;5055259;28;20033;-64
2022/07/23 10:50:19;;;;;;;6.82;5.15;;;37.00;64.40;;;;;;5054152;28;20397;-65
2022/07/23 10:53:13;;;;;;;5.32;4.82;;;38.00;62.70;;;;;;5056504;28;20036;-65
2022/07/23 10:55:39;;;;;;;4.93;4.53;;;38.80;61.70;;;;;;5056386;28;20056;-65
2022/07/23 10:58:05;;;;;;;5.20;4.63;;;39.60;60.00;;;;;;5057857;28;20021;-65
2022/07/23 11:00:33;;;;;;;4.85;4.38;;;38.40;59.80;;;;;;5056783;28;20025;-66
2022/07/23 11:03:01;;;;;;;5.90;5.40;;;38.10;60.80;;;;;;5055686;28;20025;-64
2022/07/23 11:05:39;;;;;;;6.50;5.07;;;38.00;61.30;;;;;;5053362;28;20044;-65
2022/07/23 11:08:04;;;;;;;6.10;5.25;;;36.80;62.10;;;;;;5053594;28;20028;-64
2022/07/23 11:10:35;;;;;;;5.75;4.70;;;35.00;63.90;;;;;;5053382;28;20029;-65
2022/07/23 11:13:22;;;;;;;5.57;5.07;;;33.90;65.70;;;;;;5054068;28;20474;-65
2022/07/23 11:16:14;;;;;;;5.35;4.85;;;34.10;66.10;;;;;;5054489;28;20056;-64
2022/07/23 11:18:40;;;;;;;5.57;4.78;;;33.60;66.20;;;;;;5053975;28;20065;-65
2022/07/23 11:21:21;;;;;;;4.97;4.47;;;33.30;67.20;;;;;;5053096;28;20021;-65
2022/07/23 11:23:58;;;;;;;5.32;4.82;;;33.00;67.40;;;;;;5052722;28;20021;-63
2022/07/23 11:26:51;;;;;;;5.90;4.63;;;32.50;68.60;;;;;;5053310;28;20063;-64
2022/07/23 11:29:26;;;;;;;5.47;4.97;;;32.30;69.20;;;;;;5053406;28;20025;-64
2022/07/23 11:32:19;;;;;;;6.07;5.45;;;32.00;70.20;;;;;;5052899;28;20063;-64
2022/07/23 11:34:47;;;;;;;6.38;5.57;;;31.40;71.30;;;;;;5053040;28;20443;-64
2022/07/23 11:37:31;;;;;;;6.13;5.53;;;31.20;72.20;;;;;;5051313;28;20017;-64
2022/07/23 11:39:58;;;;;;;6.80;5.35;;;30.90;72.80;;;;;;5051218;28;20028;-64
2022/07/23 11:42:23;;;;;;;6.90;5.15;;;30.80;72.90;;;;;;5051538;28;20021;-63
2022/07/23 11:44:50;;;;;;;5.95;5.35;;;30.80;73.60;;;;;;5053130;28;20032;-65
2022/07/23 11:47:24;;;;;;;6.20;5.20;;;30.90;73.80;;;;;;5051535;28;20021;-64
2022/07/23 11:49:54;;;;;;;7.22;5.13;;;30.80;74.10;;;;;;5053033;28;20040;-63
2022/07/23 11:52:20;;;;;;;8.98;5.82;;;31.00;74.50;;;;;;5052486;28;20468;-64
2022/07/23 11:55:05;;;;;;;7.38;5.60;;;31.00;74.20;;;;;;5053048;28;20017;-64
2022/07/23 11:57:37;;;;;;;6.20;5.45;;;30.90;74.40;;;;;;5052734;28;20017;-66
2022/07/23 12:00:11;;;;;;;10.65;5.90;;;30.70;74.90;;;;;;5053098;28;20230;-63
2022/07/23 12:02:41;;;;;;;5.97;5.40;;;30.70;75.10;;;;;;5052667;28;20366;-63
2022/07/23 12:05:11;;;;;;;6.40;5.68;;;30.70;75.30;;;;;;5051245;28;20078;-64
2022/07/23 12:07:39;;;;;;;8.27;5.40;;;30.80;75.10;;;;;;5054450;28;20075;-64
2022/07/23 12:10:15;;;;;;;7.05;5.13;;;30.80;74.70;;;;;;5055191;28;20385;-64
2022/07/23 12:12:52;;;;;;;7.38;6.05;;;30.70;75.10;;;;;;5056400;28;20516;-63
2022/07/23 12:15:22;;;;;;;6.35;5.20;;;30.40;76.00;;;;;;5056178;28;20041;-64
2022/07/23 12:17:49;;;;;;;6.47;5.30;;;30.40;74.90;;;;;;5056404;28;20049;-64
2022/07/23 12:20:21;;;;;;;6.28;5.22;;;30.50;75.60;;;;;;5056261;28;20060;-64
2022/07/23 12:22:55;;;;;;;6.80;6.07;;;30.50;74.20;;;;;;5054725;28;20021;-63
2022/07/23 12:25:23;;;;;;;8.60;6.90;;;30.50;74.30;;;;;;5056086;28;20029;-66
2022/07/23 12:28:07;;;;;;;12.32;7.20;;;30.40;75.10;;;;;;5056045;28;20036;-64
2022/07/23 12:30:34;;;;;;;8.63;6.47;;;30.50;75.90;;;;;;5054904;28;20021;-65
2022/07/23 12:33:00;;;;;;;5.90;5.30;;;30.50;74.60;;;;;;5056129;28;20150;-64
2022/07/23 12:35:41;;;;;;;20.73;10.10;;;30.40;74.10;;;;;;5056207;28;20053;-64
2022/07/23 12:38:13;;;;;;;7.63;5.47;;;30.20;75.50;;;;;;5056048;28;20139;-64
2022/07/23 12:40:44;;;;;;;6.38;5.13;;;30.20;73.90;;;;;;5056159;28;20107;-63
2022/07/23 12:43:19;;;;;;;5.68;5.10;;;30.30;74.10;;;;;;5056244;28;20047;-65
2022/07/23 12:45:49;;;;;;;7.00;5.72;;;30.40;75.20;;;;;;5056099;28;20037;-64
2022/07/23 12:48:21;;;;;;;6.53;5.28;;;30.40;75.20;;;;;;5055900;28;20063;-64
2022/07/23 12:50:56;;;;;;;6.93;5.65;;;30.60;74.30;;;;;;5055595;28;20037;-64
2022/07/23 12:53:23;;;;;;;9.35;5.82;;;30.60;74.20;;;;;;5054171;28;20049;-64
2022/07/23 12:55:50;;;;;;;5.85;5.25;;;30.40;74.40;;;;;;5055340;28;20060;-63
2022/07/23 12:58:18;;;;;;;5.80;5.22;;;30.10;74.00;;;;;;5055694;28;20541;-64
2022/07/23 13:00:54;;;;;;;8.90;5.50;;;30.20;74.30;;;;;;5055249;28;20036;-64
2022/07/23 13:03:40;;;;;;;5.97;5.07;;;30.10;73.70;;;;;;5055745;28;20028;-64
2022/07/23 13:06:10;;;;;;;7.83;5.60;;;30.00;74.30;;;;;;5055486;28;20047;-64
2022/07/23 13:08:39;;;;;;;5.97;5.05;;;30.30;74.40;;;;;;5055997;28;20040;-64
2022/07/23 13:11:06;;;;;;;6.00;5.03;;;30.50;73.90;;;;;;5056303;28;20024;-64
2022/07/23 13:13:34;;;;;;;6.47;5.18;;;30.50;73.00;;;;;;5056362;28;20074;-64
2022/07/23 13:16:00;;;;;;;6.43;5.32;;;30.60;72.80;;;;;;5056115;28;20065;-64